Startpagina
METAR-TAF:

METAR-TAF

Vliegvelden :

Madrid, Spanje

Aeropuerto Adolfo Suárez Madrid-Barajas

breedte: 40-27N, lengte: 003-33W, hoogte: 609 m

Actueel weer

Dit bericht is 35 minuten geleden gemaakt, om 08:30 UTC
Wind 1 kt uit variabele richting
Temperatuur 18°C
Vochtigheid 56%
Druk 1022 hPa
Zicht 10 km of meer
geen wolken onder 1500 m en geen cumulonimbus

METAR: LEMD 230830Z VRB01KT CAVOK 18/09 Q1022 NOSIG

Tijdstip: 11:05 (09:05 UTC)

Verwachting

Dit bericht is 4 uur en het 5 minuten geleden gemaakt, om 05:00 UTC
Verwachting geldig van 23 om 06 UTC tot 24 om 12 UTC
Wind 5 kt uit variabele richting
Zicht 10 km of meer
geen wolken onder 1500 m en geen cumulonimbus

TAF: LEMD 230500Z 2306/2412 VRB05KT CAVOK TX29/2315Z TN12/2306Z

Waarnemingen en weersverwachtingen van meer dan 4000 vliegvelden (METAR en TAF).

De beschikbare stations zijn de gele en rode punten op de kaart.

Ga met uw muis naar het station om de naam te zien.

Klik dan om waarnemingen en weersverwachtingen te zien.

kaart wijzigen: klik op de groene knoppen met een zwart kruis om in te zoomen, op de groene knop met een streepje om uit te zoomen of op de groene pijlen voor aangrenzende kaarten.


METAR-TAF: